Time;durP1;ratioP1;P1;durP2;ratioP2;P2;SDS_P1;SDS_P2;PMS_P1;PMS_P2;Temp;Humidity;BMP_temperature;BMP_pressure;BME280_temperature;BME280_humidity;BME280_pressure;Samples;Min_cycle;Max_cycle;Signal;HPM_P1;HPM_P2
2024/01/22 00:00:37;;;;;;;9.50;4.78;;;8.60;99.90;;;;;;5034964;28;20030;-76
2024/01/22 00:03:03;;;;;;;8.23;4.40;;;8.70;99.90;;;;;;5057752;28;20025;-77
2024/01/22 00:05:29;;;;;;;10.10;4.35;;;8.70;99.90;;;;;;5054071;28;20036;-76
2024/01/22 00:07:55;;;;;;;8.60;4.00;;;8.80;99.90;;;;;;5042054;28;20021;-76
2024/01/22 00:10:20;;;;;;;6.03;3.72;;;8.80;99.90;;;;;;5038492;28;20508;-77
2024/01/22 00:12:46;;;;;;;8.93;4.78;;;8.80;99.90;;;;;;5053450;28;20045;-76
2024/01/22 00:15:12;;;;;;;5.70;3.47;;;8.80;99.90;;;;;;5051942;28;20040;-76
2024/01/22 00:17:38;;;;;;;6.55;4.38;;;8.80;99.90;;;;;;5049231;28;20017;-76
2024/01/22 00:20:04;;;;;;;7.63;3.65;;;8.90;99.90;;;;;;5066204;28;20068;-76
2024/01/22 00:22:29;;;;;;;5.95;3.53;;;8.90;99.90;;;;;;5072309;28;20043;-76
2024/01/22 00:24:55;;;;;;;7.25;3.70;;;8.90;99.90;;;;;;5073418;28;20404;-76
2024/01/22 00:27:21;;;;;;;5.88;3.83;;;8.90;99.90;;;;;;5072792;28;20024;-77
2024/01/22 00:29:46;;;;;;;7.45;3.95;;;8.90;99.90;;;;;;5072982;28;20393;-76
2024/01/22 00:32:12;;;;;;;7.68;4.10;;;8.90;99.90;;;;;;5064213;28;20017;-77
2024/01/22 00:34:38;;;;;;;8.70;4.03;;;9.00;99.90;;;;;;5053084;28;20033;-76
2024/01/22 00:37:04;;;;;;;6.00;3.65;;;9.00;99.90;;;;;;5053411;28;20040;-76
2024/01/22 00:39:30;;;;;;;8.02;4.30;;;9.00;99.90;;;;;;5052445;28;20043;-77
2024/01/22 00:41:56;;;;;;;6.13;3.45;;;9.00;99.90;;;;;;5052548;28;20454;-77
2024/01/22 00:44:22;;;;;;;5.93;3.85;;;9.10;99.90;;;;;;5053165;28;20013;-76
2024/01/22 00:46:48;;;;;;;10.38;3.75;;;9.00;99.90;;;;;;5053047;28;20082;-76
2024/01/22 00:49:14;;;;;;;5.80;3.53;;;9.10;99.90;;;;;;5054878;28;20430;-76
2024/01/22 00:51:40;;;;;;;4.95;3.25;;;9.10;99.90;;;;;;5065185;28;20086;-76
2024/01/22 00:54:06;;;;;;;8.15;3.78;;;9.20;99.90;;;;;;5052525;28;20107;-76
2024/01/22 00:56:33;;;;;;;7.03;3.15;;;9.20;99.90;;;;;;5048466;28;20384;-76
2024/01/22 00:58:59;;;;;;;7.45;3.58;;;9.20;99.90;;;;;;5032107;28;20025;-76
2024/01/22 01:01:25;;;;;;;7.63;3.10;;;9.20;99.90;;;;;;5034165;28;20040;-77
2024/01/22 01:03:50;;;;;;;6.20;3.10;;;9.30;99.90;;;;;;5053130;28;20409;-76
2024/01/22 01:06:16;;;;;;;5.32;2.63;;;9.30;99.90;;;;;;5052844;28;20024;-76
2024/01/22 01:08:42;;;;;;;5.40;3.17;;;9.30;99.90;;;;;;5051983;28;20025;-75
2024/01/22 01:11:08;;;;;;;10.60;3.15;;;9.20;99.90;;;;;;5052686;28;20492;-76
2024/01/22 01:13:33;;;;;;;3.72;2.80;;;9.30;99.90;;;;;;5052170;28;20437;-76
2024/01/22 01:15:59;;;;;;;5.00;2.58;;;9.30;99.90;;;;;;5052553;28;20033;-76
2024/01/22 01:18:25;;;;;;;4.00;2.80;;;9.30;99.90;;;;;;5052605;28;20025;-76
2024/01/22 01:20:51;;;;;;;5.03;3.20;;;9.30;99.90;;;;;;5052422;28;20395;-76
2024/01/22 01:23:16;;;;;;;5.78;2.80;;;9.30;99.90;;;;;;5052436;28;20017;-76
2024/01/22 01:25:42;;;;;;;3.22;2.40;;;9.30;99.90;;;;;;5052464;28;20489;-76
2024/01/22 01:28:08;;;;;;;4.47;2.60;;;9.40;99.90;;;;;;5050705;28;20028;-76
2024/01/22 01:30:33;;;;;;;5.85;2.88;;;9.30;99.90;;;;;;5052257;28;20036;-76
2024/01/22 01:32:59;;;;;;;4.53;2.80;;;9.40;99.90;;;;;;5053771;28;20021;-76
2024/01/22 01:35:25;;;;;;;5.13;2.60;;;9.30;99.90;;;;;;5050907;28;20061;-76
2024/01/22 01:37:52;;;;;;;4.35;2.70;;;9.40;99.90;;;;;;5052057;28;20024;-76
2024/01/22 01:40:17;;;;;;;3.88;2.38;;;9.40;99.90;;;;;;5052140;28;20378;-76
2024/01/22 01:42:44;;;;;;;3.90;2.38;;;9.50;99.90;;;;;;5050738;28;20554;-76
2024/01/22 01:45:14;;;;;;;3.38;2.40;;;9.40;99.90;;;;;;5051869;28;20360;-77
2024/01/22 01:47:43;;;;;;;5.65;2.72;;;9.50;99.90;;;;;;5051740;28;20399;-76
2024/01/22 01:50:10;;;;;;;3.75;2.55;;;9.50;99.90;;;;;;5051584;28;20033;-76
2024/01/22 01:52:36;;;;;;;4.45;2.53;;;9.50;99.90;;;;;;5065077;28;20020;-76
2024/01/22 01:55:02;;;;;;;3.05;2.72;;;9.50;99.90;;;;;;5071969;28;20025;-75
2024/01/22 01:57:29;;;;;;;7.65;2.95;;;9.60;99.90;;;;;;5059201;28;20021;-76
2024/01/22 01:59:57;;;;;;;5.68;2.47;;;9.60;99.90;;;;;;5051372;28;20025;-76
2024/01/22 02:02:23;;;;;;;2.85;2.28;;;9.60;99.90;;;;;;5051283;28;20085;-76
2024/01/22 02:04:49;;;;;;;3.80;2.53;;;9.60;99.90;;;;;;5051770;28;20104;-76
2024/01/22 02:07:16;;;;;;;3.88;2.67;;;9.60;99.90;;;;;;5051935;28;20032;-76
2024/01/22 02:09:46;;;;;;;3.38;2.60;;;9.60;99.90;;;;;;5050849;28;20540;-75
2024/01/22 02:12:12;;;;;;;3.00;2.38;;;9.60;99.90;;;;;;5051505;28;20035;-76
2024/01/22 02:14:38;;;;;;;5.68;2.58;;;9.60;99.90;;;;;;5051718;28;20020;-75
2024/01/22 02:17:03;;;;;;;5.28;2.50;;;9.70;99.90;;;;;;5050071;28;20037;-76
2024/01/22 02:19:31;;;;;;;4.28;2.30;;;9.80;99.90;;;;;;5050115;28;20104;-76
2024/01/22 02:21:57;;;;;;;2.60;2.05;;;9.70;99.90;;;;;;5054969;28;20087;-75
2024/01/22 02:24:22;;;;;;;3.88;2.42;;;9.80;99.90;;;;;;5056096;28;20017;-75
2024/01/22 02:26:48;;;;;;;3.67;2.40;;;9.90;99.90;;;;;;5054887;28;20040;-76
2024/01/22 02:29:14;;;;;;;4.57;2.58;;;9.90;99.90;;;;;;5068825;28;20428;-75
2024/01/22 02:31:39;;;;;;;4.05;2.20;;;9.90;99.90;;;;;;5054310;28;20052;-76
2024/01/22 02:34:05;;;;;;;4.15;2.08;;;10.00;99.90;;;;;;5055842;28;20052;-75
2024/01/22 02:36:31;;;;;;;3.13;2.22;;;10.00;99.90;;;;;;5056085;28;20025;-75
2024/01/22 02:38:56;;;;;;;3.97;2.42;;;10.10;99.90;;;;;;5054665;28;20397;-75
2024/01/22 02:41:22;;;;;;;4.30;3.10;;;10.10;99.90;;;;;;5055327;28;20466;-75
2024/01/22 02:43:48;;;;;;;3.65;2.80;;;10.10;99.90;;;;;;5055393;28;20088;-76
2024/01/22 02:46:13;;;;;;;3.65;2.70;;;10.10;99.90;;;;;;5053896;28;20405;-75
2024/01/22 02:48:39;;;;;;;3.67;2.53;;;10.20;99.90;;;;;;5055162;28;20108;-75
2024/01/22 02:51:10;;;;;;;2.72;2.47;;;10.30;99.90;;;;;;5055034;28;20040;-75
2024/01/22 02:53:37;;;;;;;3.72;2.30;;;10.30;99.90;;;;;;5054704;28;20443;-76
2024/01/22 02:56:03;;;;;;;7.07;2.40;;;10.30;99.90;;;;;;5054202;28;20025;-75
2024/01/22 02:58:31;;;;;;;5.80;2.83;;;10.30;99.90;;;;;;5035612;28;20030;-77
2024/01/22 03:00:57;;;;;;;4.05;2.42;;;10.30;99.90;;;;;;5035105;28;20104;-76
2024/01/22 03:03:22;;;;;;;2.85;2.30;;;10.30;99.90;;;;;;5051899;28;20108;-76
2024/01/22 03:05:48;;;;;;;2.97;2.30;;;10.30;99.90;;;;;;5054425;28;20029;-76
2024/01/22 03:08:14;;;;;;;2.42;2.22;;;10.30;99.90;;;;;;5054882;28;20081;-76
2024/01/22 03:10:39;;;;;;;3.83;2.92;;;10.40;99.90;;;;;;5054305;28;20048;-76
2024/01/22 03:13:05;;;;;;;3.80;1.98;;;10.30;99.90;;;;;;5054443;28;20482;-76
2024/01/22 03:15:31;;;;;;;4.72;2.50;;;10.40;99.90;;;;;;5054686;28;20021;-76
2024/01/22 03:17:57;;;;;;;3.33;2.10;;;10.30;99.90;;;;;;5054293;28;20029;-76
2024/01/22 03:20:22;;;;;;;4.47;2.70;;;10.30;99.90;;;;;;5053456;28;20025;-76
2024/01/22 03:22:48;;;;;;;2.67;1.80;;;10.40;99.90;;;;;;5052457;28;20068;-76
2024/01/22 03:25:14;;;;;;;6.70;2.05;;;10.40;99.90;;;;;;5053457;28;20497;-76
2024/01/22 03:27:40;;;;;;;3.45;2.30;;;10.40;99.90;;;;;;5054552;28;20497;-76
2024/01/22 03:30:07;;;;;;;3.85;2.20;;;10.40;99.90;;;;;;5054875;28;20029;-77
2024/01/22 03:32:32;;;;;;;5.30;2.20;;;10.30;99.90;;;;;;5053611;28;20563;-77
2024/01/22 03:34:58;;;;;;;3.15;2.28;;;10.30;99.90;;;;;;5054427;28;20049;-77
2024/01/22 03:37:24;;;;;;;3.25;2.15;;;10.30;99.90;;;;;;5053676;28;20037;-78
2024/01/22 03:39:50;;;;;;;4.10;2.40;;;10.30;99.90;;;;;;5052815;28;20028;-77
2024/01/22 03:42:15;;;;;;;3.25;2.17;;;10.30;99.90;;;;;;5051097;28;20045;-77
2024/01/22 03:44:41;;;;;;;4.60;2.95;;;10.30;99.90;;;;;;5053641;28;20024;-77
2024/01/22 03:47:07;;;;;;;3.90;2.17;;;10.30;99.90;;;;;;5051498;28;20036;-77
2024/01/22 03:49:33;;;;;;;3.05;2.10;;;10.30;99.90;;;;;;5069788;28;20510;-77
2024/01/22 03:51:58;;;;;;;3.13;2.40;;;10.40;99.90;;;;;;5046615;28;20039;-76
2024/01/22 03:54:24;;;;;;;3.33;2.13;;;10.30;99.90;;;;;;5034202;28;20445;-77
2024/01/22 03:56:50;;;;;;;5.00;2.58;;;10.40;99.90;;;;;;5038462;28;20029;-77
2024/01/22 03:59:17;;;;;;;3.17;2.22;;;10.40;99.90;;;;;;5032251;28;20017;-77
2024/01/22 04:01:42;;;;;;;3.05;2.00;;;10.30;99.90;;;;;;5038535;28;20040;-77
2024/01/22 04:04:08;;;;;;;6.25;2.65;;;10.40;99.90;;;;;;5053623;28;20025;-77
2024/01/22 04:06:34;;;;;;;2.35;1.92;;;10.30;99.90;;;;;;5059319;28;20434;-77
2024/01/22 04:09:00;;;;;;;3.17;1.90;;;10.40;99.90;;;;;;5053352;28;20021;-76
2024/01/22 04:11:26;;;;;;;2.08;1.67;;;10.40;99.90;;;;;;5053824;28;20032;-77
2024/01/22 04:13:52;;;;;;;5.60;2.33;;;10.30;99.90;;;;;;5052828;28;20135;-77
2024/01/22 04:16:18;;;;;;;5.13;1.90;;;10.40;99.90;;;;;;5054030;28;20029;-77
2024/01/22 04:18:44;;;;;;;2.17;1.63;;;10.40;99.90;;;;;;5052991;28;20086;-77
2024/01/22 04:21:10;;;;;;;2.60;1.60;;;10.40;99.90;;;;;;5052607;28;20032;-77
2024/01/22 04:23:36;;;;;;;2.10;1.90;;;10.40;99.90;;;;;;5054193;28;20025;-76
2024/01/22 04:26:03;;;;;;;2.92;1.60;;;10.40;99.90;;;;;;5052610;28;20032;-77
2024/01/22 04:28:30;;;;;;;1.92;1.80;;;10.40;99.90;;;;;;5053148;28;20025;-76
2024/01/22 04:30:55;;;;;;;3.65;2.28;;;10.40;99.90;;;;;;5044673;28;20033;-76
2024/01/22 04:33:21;;;;;;;3.92;2.25;;;10.40;99.90;;;;;;5037579;28;20072;-76
2024/01/22 04:35:49;;;;;;;2.92;1.80;;;10.40;99.90;;;;;;5046271;28;20017;-78
2024/01/22 04:38:15;;;;;;;5.20;1.80;;;10.40;99.90;;;;;;5052954;28;20029;-77
2024/01/22 04:40:41;;;;;;;4.03;2.28;;;10.40;99.90;;;;;;5073579;28;20027;-77
2024/01/22 04:43:07;;;;;;;5.85;1.65;;;10.40;99.90;;;;;;5048892;28;20036;-77
2024/01/22 04:45:33;;;;;;;3.30;1.80;;;10.40;99.90;;;;;;5051743;28;20478;-77
2024/01/22 04:47:59;;;;;;;2.10;1.60;;;10.50;99.90;;;;;;5052928;28;20027;-77
2024/01/22 04:50:25;;;;;;;2.60;1.45;;;10.50;99.90;;;;;;5053415;28;20025;-77
2024/01/22 04:52:50;;;;;;;2.78;1.50;;;10.50;99.90;;;;;;5060553;28;20071;-77
2024/01/22 04:55:16;;;;;;;4.15;1.80;;;10.50;99.90;;;;;;5071980;28;20535;-77
2024/01/22 04:57:42;;;;;;;2.08;1.60;;;10.50;99.90;;;;;;5071726;28;20484;-78
2024/01/22 05:00:08;;;;;;;4.97;1.85;;;10.50;99.90;;;;;;5073263;28;20095;-77
2024/01/22 05:02:34;;;;;;;3.63;1.85;;;10.60;99.90;;;;;;5072132;28;20040;-76
2024/01/22 05:05:03;;;;;;;2.35;1.30;;;10.60;99.90;;;;;;5071659;28;20027;-76
2024/01/22 05:07:28;;;;;;;3.80;1.40;;;10.60;99.90;;;;;;5057824;28;20029;-76
2024/01/22 05:09:57;;;;;;;4.32;1.50;;;10.70;99.90;;;;;;5052631;28;20489;-77
2024/01/22 05:12:24;;;;;;;2.35;1.55;;;10.60;99.90;;;;;;5049186;28;20086;-77
2024/01/22 05:14:51;;;;;;;2.78;1.55;;;10.70;99.90;;;;;;5040513;28;20410;-77
2024/01/22 05:17:17;;;;;;;2.00;1.30;;;10.70;99.90;;;;;;5031193;28;20398;-77
2024/01/22 05:19:43;;;;;;;2.90;1.50;;;10.70;99.90;;;;;;5037054;28;20076;-76
2024/01/22 05:22:09;;;;;;;2.00;1.80;;;10.80;99.90;;;;;;5071975;28;20041;-77
2024/01/22 05:24:35;;;;;;;2.42;1.17;;;10.90;99.90;;;;;;5072586;28;20096;-76
2024/01/22 05:27:03;;;;;;;2.55;1.30;;;10.80;99.90;;;;;;5072352;28;20115;-76
2024/01/22 05:29:29;;;;;;;2.75;1.38;;;10.90;99.90;;;;;;5072123;28;20025;-76
2024/01/22 05:31:54;;;;;;;4.18;1.60;;;10.90;99.90;;;;;;5072524;28;20527;-77
2024/01/22 05:34:20;;;;;;;3.50;1.52;;;10.90;99.90;;;;;;5072473;28;20021;-77
2024/01/22 05:36:46;;;;;;;2.63;1.60;;;11.00;99.90;;;;;;5072728;28;20024;-77
2024/01/22 05:39:13;;;;;;;2.72;1.38;;;11.00;99.90;;;;;;5071589;28;20532;-77
2024/01/22 05:41:40;;;;;;;2.35;1.20;;;11.00;99.90;;;;;;5072330;28;20039;-78
2024/01/22 05:44:06;;;;;;;4.85;1.45;;;11.00;99.90;;;;;;5071461;28;20051;-77
2024/01/22 05:46:32;;;;;;;4.93;1.42;;;10.90;99.90;;;;;;5056570;28;20079;-77
2024/01/22 05:48:58;;;;;;;5.65;1.70;;;10.90;99.90;;;;;;5051832;28;20060;-77
2024/01/22 05:51:24;;;;;;;2.50;1.48;;;11.10;99.90;;;;;;5052444;28;20064;-77
2024/01/22 05:53:50;;;;;;;3.78;1.52;;;11.10;99.90;;;;;;5069451;28;20025;-78
2024/01/22 05:56:25;;;;;;;3.67;1.83;;;11.00;99.90;;;;;;5071402;28;20074;-78
2024/01/22 05:58:54;;;;;;;2.63;1.70;;;11.10;99.90;;;;;;5065254;28;20029;-77
2024/01/22 06:01:20;;;;;;;3.53;1.88;;;11.10;99.90;;;;;;5041391;28;20025;-78
2024/01/22 06:03:46;;;;;;;3.22;1.55;;;11.00;99.90;;;;;;5031002;28;20057;-78
2024/01/22 06:06:16;;;;;;;1.98;1.52;;;11.00;99.90;;;;;;5033628;28;20055;-77
2024/01/22 06:08:43;;;;;;;2.50;1.50;;;11.00;99.90;;;;;;5052317;28;20029;-77
2024/01/22 06:11:10;;;;;;;2.33;1.75;;;11.10;99.90;;;;;;5051942;28;20036;-77
2024/01/22 06:13:39;;;;;;;4.45;1.77;;;11.10;99.90;;;;;;5051215;28;20032;-77
2024/01/22 06:16:07;;;;;;;4.18;2.10;;;11.00;99.90;;;;;;5051617;28;20160;-77
2024/01/22 06:18:33;;;;;;;2.17;1.30;;;11.10;99.90;;;;;;5051064;28;20462;-77
2024/01/22 06:20:59;;;;;;;3.55;2.15;;;11.20;99.90;;;;;;5052006;28;20033;-77
2024/01/22 06:23:24;;;;;;;2.38;1.98;;;11.10;99.90;;;;;;5052108;28;20076;-77
2024/01/22 06:25:50;;;;;;;3.53;2.25;;;11.10;99.90;;;;;;5052029;28;20031;-77
2024/01/22 06:28:16;;;;;;;6.88;2.42;;;11.20;99.90;;;;;;5065113;28;20025;-77
2024/01/22 06:30:43;;;;;;;6.22;2.40;;;11.20;99.90;;;;;;5072211;28;20021;-77
2024/01/22 06:33:09;;;;;;;5.20;2.15;;;11.10;99.90;;;;;;5070892;28;20028;-77
2024/01/22 06:35:35;;;;;;;3.17;2.05;;;11.10;99.90;;;;;;5071873;28;20049;-77
2024/01/22 06:38:00;;;;;;;2.30;1.90;;;11.20;99.90;;;;;;5072022;28;20108;-77
2024/01/22 06:40:28;;;;;;;4.95;2.22;;;11.20;99.90;;;;;;5071574;28;20074;-77
2024/01/22 06:42:54;;;;;;;5.32;2.92;;;11.10;99.90;;;;;;5071162;28;20079;-77
2024/01/22 06:45:20;;;;;;;6.13;1.88;;;11.20;99.90;;;;;;5071171;28;20048;-76
2024/01/22 06:47:45;;;;;;;4.03;2.50;;;11.10;99.90;;;;;;5070507;28;20032;-78
2024/01/22 06:50:12;;;;;;;4.82;2.30;;;11.10;99.90;;;;;;5062448;28;20431;-77
2024/01/22 06:52:37;;;;;;;4.35;2.50;;;11.10;99.90;;;;;;5047216;28;20029;-78
2024/01/22 06:55:05;;;;;;;3.55;2.20;;;11.20;99.90;;;;;;5050291;28;20013;-77
2024/01/22 06:57:31;;;;;;;3.42;2.03;;;11.20;99.90;;;;;;5050830;28;20025;-77
2024/01/22 06:59:56;;;;;;;3.35;1.83;;;11.30;99.90;;;;;;5033719;28;20095;-76
2024/01/22 07:02:26;;;;;;;5.05;2.10;;;11.20;99.90;;;;;;5038703;28;20110;-76
2024/01/22 07:04:53;;;;;;;4.43;1.88;;;11.30;99.90;;;;;;5070312;28;20420;-76
2024/01/22 07:07:19;;;;;;;3.88;1.52;;;11.20;99.90;;;;;;5046407;28;20102;-77
2024/01/22 07:09:44;;;;;;;7.22;2.05;;;11.20;99.90;;;;;;5055001;28;20029;-76
2024/01/22 07:12:10;;;;;;;4.20;1.52;;;11.30;99.90;;;;;;5054622;28;20063;-76
2024/01/22 07:14:36;;;;;;;3.38;1.45;;;11.30;99.90;;;;;;5054866;28;20017;-76
2024/01/22 07:17:03;;;;;;;4.45;1.52;;;11.30;99.90;;;;;;5049154;28;20040;-76
2024/01/22 07:19:29;;;;;;;6.15;1.70;;;11.40;99.90;;;;;;5045876;28;20063;-76
2024/01/22 07:21:55;;;;;;;2.47;1.83;;;11.40;99.90;;;;;;5052614;28;20558;-76
2024/01/22 07:24:20;;;;;;;4.57;1.40;;;11.40;99.90;;;;;;5069528;28;20025;-77
2024/01/22 07:26:46;;;;;;;4.85;1.75;;;11.50;99.90;;;;;;5055044;28;20040;-77
2024/01/22 07:29:12;;;;;;;4.72;1.70;;;11.50;99.90;;;;;;5042282;28;20540;-77
2024/01/22 07:31:38;;;;;;;2.25;1.38;;;11.50;99.90;;;;;;5033961;28;20025;-76
2024/01/22 07:34:05;;;;;;;3.55;1.50;;;11.50;99.90;;;;;;5050400;28;20378;-77
2024/01/22 07:36:31;;;;;;;3.85;2.05;;;11.50;99.90;;;;;;5037692;28;20022;-76
2024/01/22 07:38:58;;;;;;;8.00;1.92;;;11.50;99.90;;;;;;5054753;28;20043;-76
2024/01/22 07:41:24;;;;;;;7.50;1.90;;;11.50;99.90;;;;;;5054495;28;20124;-76
2024/01/22 07:43:50;;;;;;;10.02;2.05;;;11.60;99.90;;;;;;5054619;28;20032;-76
2024/01/22 07:46:15;;;;;;;6.88;2.08;;;11.50;99.90;;;;;;5073966;28;20020;-76
2024/01/22 07:48:41;;;;;;;7.22;2.40;;;11.70;99.90;;;;;;5072656;28;20032;-76
2024/01/22 07:51:07;;;;;;;16.10;2.58;;;11.70;99.90;;;;;;5074414;28;20032;-76
2024/01/22 07:53:33;;;;;;;8.00;2.33;;;11.70;99.90;;;;;;5074670;28;20058;-76
2024/01/22 07:55:59;;;;;;;12.48;2.95;;;11.70;99.90;;;;;;5074385;28;20043;-76
2024/01/22 07:58:25;;;;;;;15.77;3.22;;;11.80;99.90;;;;;;5074190;28;20062;-77
2024/01/22 08:00:50;;;;;;;7.90;1.75;;;11.80;99.90;;;;;;5073919;28;20035;-77
2024/01/22 08:03:16;;;;;;;4.68;1.98;;;11.70;99.90;;;;;;5070890;28;20082;-77
2024/01/22 08:05:42;;;;;;;4.25;1.35;;;11.70;99.90;;;;;;5036114;28;20040;-77
2024/01/22 08:08:11;;;;;;;3.67;1.23;;;11.70;99.90;;;;;;5051579;28;20021;-77
2024/01/22 08:10:37;;;;;;;4.28;1.30;;;11.70;99.90;;;;;;5054072;28;20025;-76
2024/01/22 08:13:03;;;;;;;4.72;1.40;;;11.70;99.90;;;;;;5044194;28;20079;-75
2024/01/22 08:15:29;;;;;;;6.85;1.38;;;11.70;99.90;;;;;;5059668;28;20029;-75
2024/01/22 08:18:14;;;;;;;2.67;1.20;;;11.70;99.90;;;;;;5064366;28;20488;-75
2024/01/22 08:20:44;;;;;;;5.07;1.42;;;11.70;99.90;;;;;;5049437;28;20110;-76
2024/01/22 08:23:10;;;;;;;4.45;1.60;;;11.70;99.90;;;;;;5069007;28;20166;-76
2024/01/22 08:25:36;;;;;;;4.13;1.80;;;11.70;99.90;;;;;;5073788;28;20524;-76
2024/01/22 08:28:02;;;;;;;7.57;1.60;;;11.60;99.90;;;;;;5073614;28;20025;-76
2024/01/22 08:30:29;;;;;;;6.85;1.50;;;11.70;99.90;;;;;;5072616;28;20496;-77
2024/01/22 08:32:55;;;;;;;7.57;2.35;;;11.60;99.90;;;;;;5071735;28;20032;-76
2024/01/22 08:35:21;;;;;;;6.60;2.00;;;11.70;99.90;;;;;;5063171;28;20029;-77
2024/01/22 08:37:54;;;;;;;6.35;1.40;;;11.60;99.90;;;;;;5053067;28;20478;-76
2024/01/22 08:40:21;;;;;;;6.35;1.98;;;11.70;99.90;;;;;;5051600;28;20062;-76
2024/01/22 08:42:51;;;;;;;6.00;1.77;;;11.60;99.90;;;;;;5045739;28;20037;-76
2024/01/22 08:45:18;;;;;;;4.47;2.13;;;11.70;99.90;;;;;;5053567;28;20473;-76
2024/01/22 08:47:45;;;;;;;4.43;1.30;;;11.70;99.90;;;;;;5052969;28;20112;-76
2024/01/22 08:50:15;;;;;;;5.30;1.42;;;11.70;99.90;;;;;;5052745;28;20059;-75
2024/01/22 08:52:42;;;;;;;5.10;1.63;;;11.80;99.90;;;;;;5065388;28;20028;-76
2024/01/22 08:55:09;;;;;;;5.43;1.50;;;11.80;99.90;;;;;;5072554;28;20099;-76
2024/01/22 08:57:35;;;;;;;7.22;1.38;;;11.80;99.90;;;;;;5072651;28;20028;-75
2024/01/22 09:00:06;;;;;;;8.73;1.90;;;11.80;99.90;;;;;;5057154;28;20009;-76
2024/01/22 09:02:32;;;;;;;5.55;1.77;;;11.90;99.90;;;;;;5053304;28;20047;-76
2024/01/22 09:04:57;;;;;;;7.18;1.58;;;11.90;99.90;;;;;;5051412;28;20104;-76
2024/01/22 09:07:23;;;;;;;5.90;1.88;;;11.90;99.90;;;;;;5043221;28;20085;-76
2024/01/22 09:09:50;;;;;;;6.82;1.80;;;11.90;99.90;;;;;;5051349;28;20466;-75
2024/01/22 09:12:18;;;;;;;10.00;2.33;;;12.00;99.90;;;;;;5048141;28;20017;-76
2024/01/22 09:14:44;;;;;;;9.57;2.15;;;12.10;99.90;;;;;;5058939;28;20017;-76
2024/01/22 09:17:10;;;;;;;12.10;2.10;;;12.00;99.90;;;;;;5050821;28;20080;-76
2024/01/22 09:19:36;;;;;;;9.43;2.42;;;12.10;99.90;;;;;;5048836;28;20104;-75
2024/01/22 09:22:01;;;;;;;14.43;2.55;;;12.00;99.90;;;;;;5052352;28;20043;-77
2024/01/22 09:24:27;;;;;;;11.63;2.28;;;12.00;99.90;;;;;;5041062;28;20025;-77
2024/01/22 09:26:53;;;;;;;10.85;2.60;;;12.10;99.90;;;;;;5046606;28;20037;-76
2024/01/22 09:29:18;;;;;;;4.30;1.50;;;11.90;99.90;;;;;;5046477;28;20496;-76
2024/01/22 09:31:44;;;;;;;12.32;2.85;;;12.00;99.90;;;;;;5055543;28;20028;-77
2024/01/22 09:34:10;;;;;;;7.78;1.90;;;12.00;99.90;;;;;;5044704;28;20111;-76
2024/01/22 09:36:36;;;;;;;10.32;2.55;;;11.90;99.90;;;;;;5052937;28;20469;-77
2024/01/22 09:39:02;;;;;;;13.63;2.55;;;12.00;99.90;;;;;;5055416;28;20043;-77
2024/01/22 09:41:29;;;;;;;13.90;3.03;;;12.00;99.90;;;;;;5051834;28;20398;-76
2024/01/22 09:43:55;;;;;;;8.93;2.42;;;12.00;99.90;;;;;;5046270;28;20093;-78
2024/01/22 09:46:22;;;;;;;13.90;2.58;;;12.00;99.90;;;;;;5060868;28;20025;-78
2024/01/22 09:48:50;;;;;;;14.60;3.00;;;12.10;99.90;;;;;;5043805;28;20034;-78
2024/01/22 09:51:17;;;;;;;13.88;2.80;;;12.00;99.90;;;;;;5050235;28;20017;-77
2024/01/22 09:53:46;;;;;;;13.50;2.88;;;12.10;99.90;;;;;;5043172;28;20131;-76
2024/01/22 09:56:15;;;;;;;11.63;2.55;;;12.10;99.90;;;;;;5049022;28;20023;-77
2024/01/22 09:58:45;;;;;;;12.95;3.00;;;12.10;99.90;;;;;;5055439;28;20023;-76
2024/01/22 10:01:11;;;;;;;14.15;3.53;;;12.10;99.90;;;;;;5061068;28;20020;-77
2024/01/22 10:03:37;;;;;;;17.23;3.47;;;12.00;99.90;;;;;;5047437;28;20171;-77
2024/01/22 10:06:04;;;;;;;13.43;2.95;;;12.10;99.90;;;;;;5051709;28;20037;-76
2024/01/22 10:08:30;;;;;;;13.98;2.72;;;12.10;99.90;;;;;;5053395;28;20021;-76
2024/01/22 10:10:55;;;;;;;7.85;2.42;;;12.10;99.90;;;;;;5044995;28;20108;-76
2024/01/22 10:13:21;;;;;;;15.35;2.88;;;12.10;99.90;;;;;;5051072;28;20028;-76
2024/01/22 10:15:48;;;;;;;16.63;2.78;;;12.20;99.90;;;;;;5052058;28;20021;-76
2024/01/22 10:18:15;;;;;;;16.33;3.03;;;12.30;99.90;;;;;;5052985;28;20030;-76
2024/01/22 10:20:45;;;;;;;13.75;3.17;;;12.20;99.90;;;;;;5053465;28;20558;-77
2024/01/22 10:23:12;;;;;;;12.75;3.22;;;12.20;99.90;;;;;;5044670;28;20035;-76
2024/01/22 10:25:38;;;;;;;41.38;7.95;;;12.20;99.90;;;;;;5024142;28;20410;-76
2024/01/22 10:28:16;;;;;;;42.03;9.73;;;12.10;99.90;;;;;;5018048;28;20033;-78
2024/01/22 10:30:44;;;;;;;24.05;6.95;;;12.10;99.90;;;;;;5034473;28;20356;-80
2024/01/22 10:33:17;;;;;;;17.45;5.03;;;12.00;99.90;;;;;;5034582;28;20098;-77
2024/01/22 10:35:45;;;;;;;20.08;5.18;;;12.00;99.90;;;;;;5033240;28;20030;-78
2024/01/22 10:38:18;;;;;;;19.38;3.72;;;12.00;99.90;;;;;;5034779;28;20078;-77
2024/01/22 10:40:45;;;;;;;13.10;3.97;;;11.90;99.90;;;;;;5038421;28;20513;-77
2024/01/22 10:43:28;;;;;;;11.45;3.38;;;11.90;99.90;;;;;;5038623;28;20041;-76
2024/01/22 10:45:56;;;;;;;19.00;4.10;;;12.00;99.90;;;;;;5039799;28;20021;-77
2024/01/22 10:48:28;;;;;;;17.23;3.92;;;11.90;99.90;;;;;;5038483;28;20063;-75
2024/01/22 10:50:54;;;;;;;15.85;3.50;;;11.90;99.90;;;;;;5041345;28;20533;-76
2024/01/22 10:53:21;;;;;;;12.40;3.30;;;11.90;99.90;;;;;;5042228;28;20536;-77
2024/01/22 10:55:55;;;;;;;22.55;3.72;;;11.90;99.90;;;;;;5036628;28;20047;-77
2024/01/22 10:58:25;;;;;;;16.25;3.33;;;11.90;99.90;;;;;;5040919;28;20021;-76
2024/01/22 11:00:54;;;;;;;23.83;4.00;;;12.00;99.90;;;;;;5038275;28;20120;-76
2024/01/22 11:03:25;;;;;;;12.82;3.10;;;12.00;99.90;;;;;;5037597;28;20029;-76
2024/01/22 11:05:56;;;;;;;20.00;3.65;;;11.90;99.90;;;;;;5042974;28;20421;-76
2024/01/22 11:08:24;;;;;;;17.42;3.03;;;11.90;99.90;;;;;;5036847;28;20025;-80
2024/01/22 11:10:52;;;;;;;15.73;3.00;;;11.90;99.90;;;;;;5034243;28;20025;-77
2024/01/22 11:13:18;;;;;;;19.85;3.63;;;11.90;99.90;;;;;;5036867;28;20053;-75
2024/01/22 11:15:44;;;;;;;21.33;4.68;;;12.00;99.90;;;;;;5037359;28;20098;-76
2024/01/22 11:18:11;;;;;;;24.83;4.55;;;12.00;99.90;;;;;;5036744;28;20029;-76
2024/01/22 11:20:38;;;;;;;31.10;4.60;;;12.10;99.90;;;;;;5039238;28;20036;-75
2024/01/22 11:23:08;;;;;;;22.73;4.97;;;12.10;99.90;;;;;;5038543;28;20445;-74
2024/01/22 11:25:35;;;;;;;25.33;5.32;;;12.20;99.90;;;;;;5037496;28;20058;-75
2024/01/22 11:28:09;;;;;;;24.38;4.88;;;12.30;99.90;;;;;;5039478;28;20075;-75
2024/01/22 11:30:44;;;;;;;26.27;4.75;;;12.30;99.90;;;;;;5041851;28;20023;-74
2024/01/22 11:33:25;;;;;;;23.95;4.78;;;12.30;99.90;;;;;;5059185;28;20018;-75
2024/01/22 11:35:52;;;;;;;20.58;4.40;;;12.40;99.90;;;;;;5035625;28;20063;-75
2024/01/22 11:38:43;;;;;;;24.02;6.15;;;12.30;99.90;;;;;;5041588;28;20017;-75
2024/01/22 11:41:08;;;;;;;27.17;6.13;;;12.30;99.90;;;;;;5037210;28;20034;-75
2024/01/22 11:43:34;;;;;;;31.70;4.82;;;12.30;99.90;;;;;;5052828;28;20036;-75
2024/01/22 11:46:14;;;;;;;25.85;5.65;;;12.30;99.90;;;;;;5033196;28;20017;-75
2024/01/22 11:48:40;;;;;;;30.85;5.63;;;12.20;99.90;;;;;;5036982;28;20411;-75
2024/01/22 11:51:07;;;;;;;37.00;6.80;;;12.20;99.90;;;;;;5035479;28;20029;-75
2024/01/22 11:53:50;;;;;;;36.10;6.22;;;12.20;99.90;;;;;;5036625;28;20032;-75
2024/01/22 11:56:16;;;;;;;35.63;6.40;;;12.10;99.90;;;;;;5033770;28;20033;-74
2024/01/22 11:58:42;;;;;;;28.85;5.93;;;12.00;99.90;;;;;;5039474;28;20037;-75
2024/01/22 12:01:11;;;;;;;30.25;6.47;;;12.00;99.90;;;;;;5037180;28;20114;-75
2024/01/22 12:03:37;;;;;;;37.70;6.93;;;11.90;99.90;;;;;;5039371;28;20033;-75
2024/01/22 12:06:05;;;;;;;29.58;6.22;;;11.90;99.90;;;;;;5035947;28;20064;-75
2024/01/22 12:08:35;;;;;;;23.73;5.53;;;11.70;99.90;;;;;;5040144;28;20524;-75
2024/01/22 12:11:12;;;;;;;37.80;7.60;;;11.70;99.90;;;;;;5039118;28;20529;-74
2024/01/22 12:13:41;;;;;;;35.78;6.70;;;11.60;99.90;;;;;;5042599;28;20600;-74
2024/01/22 12:16:17;;;;;;;32.47;6.85;;;11.60;99.90;;;;;;5038440;28;20056;-74
2024/01/22 12:18:44;;;;;;;34.90;6.95;;;11.60;99.90;;;;;;5036596;28;20052;-74
2024/01/22 12:21:10;;;;;;;28.83;6.85;;;11.70;99.90;;;;;;5038282;28;20036;-74
2024/01/22 12:23:37;;;;;;;38.50;7.78;;;11.70;99.90;;;;;;5038406;28;20057;-74
2024/01/22 12:26:03;;;;;;;44.08;6.88;;;11.70;99.90;;;;;;5033803;28;20029;-74
2024/01/22 12:28:29;;;;;;;46.58;8.07;;;11.70;99.90;;;;;;5038770;28;20036;-74
2024/01/22 12:31:02;;;;;;;34.78;7.45;;;11.80;99.90;;;;;;5036359;28;20032;-74
2024/01/22 12:33:30;;;;;;;50.20;8.98;;;11.80;99.90;;;;;;5035205;28;20037;-74
2024/01/22 12:36:06;;;;;;;44.58;7.95;;;11.70;99.90;;;;;;5033575;28;20025;-75
2024/01/22 12:38:33;;;;;;;46.22;7.95;;;11.70;99.90;;;;;;5042498;28;20030;-75
2024/01/22 12:41:08;;;;;;;47.95;8.68;;;11.70;99.90;;;;;;5036857;28;20053;-75
2024/01/22 12:43:38;;;;;;;37.88;7.72;;;11.80;99.90;;;;;;5043148;28;20470;-75